createdAt,value
2024-02-04T00:02:28.283Z,21.91
2024-02-04T00:04:58.629Z,21.90
2024-02-04T00:07:28.890Z,21.88
2024-02-04T00:09:59.226Z,21.89
2024-02-04T00:12:29.522Z,21.86
2024-02-04T00:14:59.699Z,21.84
2024-02-04T00:17:32.688Z,21.83
2024-02-04T00:20:04.892Z,21.84
2024-02-04T00:22:35.806Z,21.83
2024-02-04T00:25:06.673Z,21.80
2024-02-04T00:27:37.071Z,21.79
2024-02-04T00:30:09.003Z,21.77
2024-02-04T00:32:39.268Z,21.78
2024-02-04T00:35:09.632Z,21.76
2024-02-04T00:37:39.826Z,21.75
2024-02-04T00:40:10.863Z,21.75
2024-02-04T00:42:41.305Z,21.74
2024-02-04T00:45:11.866Z,21.73
2024-02-04T00:47:42.111Z,21.71
2024-02-04T00:50:12.918Z,21.71
2024-02-04T00:52:43.271Z,21.71
2024-02-04T00:55:13.657Z,21.69
2024-02-04T00:57:43.902Z,21.69
2024-02-04T01:00:14.686Z,21.67
2024-02-04T01:02:44.867Z,21.66
2024-02-04T01:05:15.942Z,21.64
2024-02-04T01:07:46.390Z,21.63
2024-02-04T01:10:16.668Z,21.61
2024-02-04T01:12:46.861Z,21.61
2024-02-04T01:15:17.022Z,21.59
2024-02-04T01:17:47.222Z,21.59
2024-02-04T01:20:17.593Z,21.58
2024-02-04T01:22:47.817Z,21.58
2024-02-04T01:25:18.025Z,21.55
2024-02-04T01:27:48.359Z,21.55
2024-02-04T01:30:19.558Z,21.54
2024-02-04T01:32:49.844Z,21.54
2024-02-04T01:35:20.073Z,21.52
2024-02-04T01:37:50.283Z,21.50
2024-02-04T01:40:20.755Z,21.48
2024-02-04T01:42:50.990Z,21.49
2024-02-04T01:45:21.213Z,21.49
2024-02-04T01:47:52.619Z,21.46
2024-02-04T01:50:24.399Z,21.47
2024-02-04T01:52:55.815Z,21.46
2024-02-04T01:55:26.237Z,21.46
2024-02-04T01:57:56.632Z,21.45
2024-02-04T02:00:27.303Z,21.40
2024-02-04T02:03:01.462Z,21.42
2024-02-04T02:05:32.102Z,21.43
2024-02-04T02:08:02.428Z,21.41
2024-02-04T02:10:32.812Z,21.38
2024-02-04T02:13:13.449Z,21.39
2024-02-04T02:15:51.631Z,21.43
2024-02-04T02:18:39.005Z,21.42
2024-02-04T02:21:47.265Z,21.46
2024-02-04T02:24:25.398Z,21.58
2024-02-04T02:26:58.508Z,21.53
2024-02-04T02:29:28.880Z,21.48
2024-02-04T02:31:59.190Z,21.41
2024-02-04T02:34:37.618Z,21.41
2024-02-04T02:37:22.748Z,21.41
2024-02-04T02:40:12.592Z,21.43
2024-02-04T02:42:48.510Z,21.47
2024-02-04T02:45:22.221Z,21.41
2024-02-04T02:47:54.185Z,21.40
2024-02-04T02:50:26.209Z,21.37
2024-02-04T02:52:56.363Z,21.35
2024-02-04T02:55:26.466Z,21.31
2024-02-04T02:57:56.690Z,21.28
2024-02-04T03:00:27.035Z,21.24
2024-02-04T03:02:57.471Z,21.24
2024-02-04T03:05:27.811Z,21.21
2024-02-04T03:07:58.006Z,21.19
2024-02-04T03:10:28.281Z,21.19
2024-02-04T03:12:58.581Z,21.15
2024-02-04T03:15:28.786Z,21.14
2024-02-04T03:17:58.976Z,21.14
2024-02-04T03:20:29.173Z,21.12
2024-02-04T03:22:59.961Z,21.10
2024-02-04T03:25:30.508Z,21.09
2024-02-04T03:28:00.826Z,21.08
2024-02-04T03:30:31.105Z,21.09
2024-02-04T03:33:01.452Z,21.09
2024-02-04T03:35:31.651Z,21.07
2024-02-04T03:38:01.795Z,21.07
2024-02-04T03:40:31.965Z,21.06
2024-02-04T03:43:03.284Z,21.05
2024-02-04T03:45:33.772Z,21.04
2024-02-04T03:48:04.320Z,21.05
2024-02-04T03:50:34.499Z,21.04
2024-02-04T03:53:04.712Z,21.02
2024-02-04T03:55:34.847Z,21.02
2024-02-04T03:58:05.225Z,21.00
2024-02-04T04:00:35.676Z,21.01
2024-02-04T04:03:06.088Z,21.00
2024-02-04T04:05:36.485Z,20.99
2024-02-04T04:08:06.836Z,20.99
2024-02-04T04:10:37.038Z,20.98
2024-02-04T04:13:07.270Z,20.96
2024-02-04T04:15:37.513Z,20.96
2024-02-04T04:18:08.341Z,20.94
2024-02-04T04:20:38.815Z,20.93
2024-02-04T04:23:08.912Z,20.94
2024-02-04T04:25:39.023Z,20.93
2024-02-04T04:28:12.023Z,20.92
2024-02-04T04:30:42.468Z,20.89
2024-02-04T04:33:13.754Z,20.89
2024-02-04T04:35:43.967Z,20.87
2024-02-04T04:38:14.101Z,20.88
2024-02-04T04:40:44.391Z,20.88
2024-02-04T04:43:14.607Z,20.86
2024-02-04T04:45:44.875Z,20.85
2024-02-04T04:48:15.248Z,20.84
2024-02-04T04:50:45.614Z,20.84
2024-02-04T04:53:15.801Z,20.83
2024-02-04T04:55:45.963Z,20.81
2024-02-04T04:58:16.251Z,20.81
2024-02-04T05:00:46.571Z,20.82
2024-02-04T05:03:16.974Z,20.81
2024-02-04T05:05:47.720Z,20.81
2024-02-04T05:08:18.019Z,20.78
2024-02-04T05:10:48.340Z,20.80
2024-02-04T05:13:18.478Z,20.79
2024-02-04T05:15:48.639Z,20.77
2024-02-04T05:18:18.904Z,20.77
2024-02-04T05:20:49.776Z,20.76
2024-02-04T05:23:20.030Z,20.77
2024-02-04T05:25:50.197Z,20.75
2024-02-04T05:28:20.758Z,20.76
2024-02-04T05:30:51.138Z,20.76
2024-02-04T05:33:21.286Z,20.75
2024-02-04T05:35:51.478Z,20.76
2024-02-04T05:38:21.650Z,20.74
2024-02-04T05:40:51.776Z,20.74
2024-02-04T05:43:22.022Z,20.74
2024-02-04T05:45:52.272Z,20.74
2024-02-04T05:48:22.631Z,20.73
2024-02-04T05:50:57.258Z,20.70
2024-02-04T05:53:27.539Z,20.74
2024-02-04T05:55:57.709Z,20.73
2024-02-04T05:58:27.877Z,20.71
2024-02-04T06:00:58.152Z,20.71
2024-02-04T06:03:31.371Z,20.71
2024-02-04T06:06:01.773Z,20.71
2024-02-04T06:08:32.539Z,20.71
2024-02-04T06:11:02.738Z,20.71
2024-02-04T06:13:32.892Z,20.69
2024-02-04T06:16:03.178Z,20.70
2024-02-04T06:18:33.420Z,20.68
2024-02-04T06:21:03.712Z,20.69
2024-02-04T06:23:34.294Z,20.69
2024-02-04T06:26:04.785Z,20.68
2024-02-04T06:28:35.052Z,20.67
2024-02-04T06:31:05.551Z,20.67
2024-02-04T06:33:35.950Z,20.66
2024-02-04T06:36:11.474Z,20.67
2024-02-04T06:38:41.754Z,20.69
2024-02-04T06:41:12.556Z,20.70
2024-02-04T06:43:42.773Z,20.74
2024-02-04T06:46:13.069Z,20.80
2024-02-04T06:48:43.525Z,20.88
2024-02-04T06:51:13.939Z,20.98
2024-02-04T06:53:44.083Z,21.10
2024-02-04T06:56:14.332Z,21.25
2024-02-04T06:58:45.471Z,21.43
2024-02-04T07:01:15.863Z,21.62
2024-02-04T07:03:46.195Z,21.82
2024-02-04T07:06:16.435Z,22.03
2024-02-04T07:08:46.587Z,22.25
2024-02-04T07:11:17.592Z,22.46
2024-02-04T07:13:47.733Z,22.67
2024-02-04T07:16:18.040Z,22.88
2024-02-04T07:18:48.310Z,23.07
2024-02-04T07:21:19.797Z,23.24
2024-02-04T07:23:50.036Z,23.40
2024-02-04T07:26:20.232Z,23.55
2024-02-04T07:28:50.907Z,23.67
2024-02-04T07:31:21.923Z,23.78
2024-02-04T07:33:52.204Z,23.88
2024-02-04T07:36:22.526Z,23.95
2024-02-04T07:38:55.359Z,24.03
2024-02-04T07:41:26.859Z,24.12
2024-02-04T07:43:57.041Z,24.17
2024-02-04T07:46:27.171Z,24.22
2024-02-04T07:48:57.411Z,24.26
2024-02-04T07:51:27.854Z,24.30
2024-02-04T07:53:58.068Z,24.33
2024-02-04T07:56:28.257Z,24.34
2024-02-04T07:58:58.475Z,24.35
2024-02-04T08:01:28.896Z,24.39
2024-02-04T08:03:59.359Z,24.40
2024-02-04T08:06:29.908Z,24.41
2024-02-04T08:09:00.113Z,24.42
2024-02-04T08:11:30.265Z,24.43
2024-02-04T08:14:01.441Z,24.43
2024-02-04T08:16:31.620Z,24.45
2024-02-04T08:19:02.109Z,24.45
2024-02-04T08:21:33.884Z,24.45
2024-02-04T08:24:04.230Z,24.45
2024-02-04T08:26:34.457Z,24.44
2024-02-04T08:29:04.612Z,24.45
2024-02-04T08:31:35.512Z,24.45
2024-02-04T08:34:05.789Z,24.46
2024-02-04T08:36:36.127Z,24.46
2024-02-04T08:39:06.321Z,24.48
2024-02-04T08:41:36.640Z,24.49
2024-02-04T08:44:06.850Z,24.51
2024-02-04T08:46:37.003Z,24.51
2024-02-04T08:49:07.406Z,24.52
2024-02-04T08:51:37.975Z,24.53
2024-02-04T08:54:08.486Z,24.53
2024-02-04T08:56:38.588Z,24.54
2024-02-04T08:59:09.243Z,24.53
2024-02-04T09:01:40.006Z,24.53
2024-02-04T09:04:10.337Z,24.51
2024-02-04T09:06:40.933Z,24.51
2024-02-04T09:09:11.169Z,24.50
2024-02-04T09:11:42.391Z,24.47
2024-02-04T09:14:12.591Z,24.46
2024-02-04T09:16:42.990Z,24.43
2024-02-04T09:19:13.467Z,24.39
2024-02-04T09:21:44.020Z,24.35
2024-02-04T09:24:14.205Z,24.32
2024-02-04T09:26:44.371Z,24.28
2024-02-04T09:29:14.723Z,24.25
2024-02-04T09:31:45.362Z,24.19
2024-02-04T09:34:18.514Z,24.16
2024-02-04T09:36:50.473Z,24.14
2024-02-04T09:39:20.845Z,24.08
2024-02-04T09:41:51.408Z,24.04
2024-02-04T09:44:23.546Z,24.00
2024-02-04T09:46:54.122Z,23.95
2024-02-04T09:49:27.200Z,23.92
2024-02-04T09:52:08.014Z,23.88
2024-02-04T09:54:51.992Z,23.87
2024-02-04T09:57:22.321Z,23.87
2024-02-04T09:59:52.546Z,23.79
2024-02-04T10:02:23.282Z,23.72
2024-02-04T10:04:53.689Z,23.67
2024-02-04T10:07:24.161Z,23.64
2024-02-04T10:09:54.454Z,23.58
2024-02-04T10:12:24.958Z,23.55
2024-02-04T10:14:55.097Z,23.51
2024-02-04T10:17:26.163Z,23.48
2024-02-04T10:19:56.350Z,23.44
2024-02-04T10:22:30.092Z,23.41
2024-02-04T10:25:13.786Z,23.39
2024-02-04T10:27:44.962Z,23.41
2024-02-04T10:30:16.609Z,23.35
2024-02-04T10:32:47.140Z,23.34
2024-02-04T10:35:20.171Z,23.30
2024-02-04T10:37:50.322Z,23.28
2024-02-04T10:40:21.229Z,23.23
2024-02-04T10:42:53.132Z,23.21
2024-02-04T10:45:27.219Z,23.19
2024-02-04T10:48:03.693Z,23.16
2024-02-04T10:50:37.912Z,23.16
2024-02-04T10:53:10.766Z,23.16
2024-02-04T10:55:44.118Z,23.14
2024-02-04T10:58:15.883Z,23.13
2024-02-04T11:00:47.359Z,23.08
2024-02-04T11:03:22.892Z,23.09
2024-02-04T11:08:25.441Z,21.45
2024-02-04T11:10:55.817Z,21.26
2024-02-04T11:13:27.566Z,21.30
2024-02-04T11:16:04.281Z,21.35
2024-02-04T11:19:00.805Z,21.41
2024-02-04T11:22:03.878Z,21.46
2024-02-04T11:24:51.403Z,21.51
2024-02-04T11:27:21.703Z,21.55
2024-02-04T11:29:52.973Z,21.56
2024-02-04T11:32:23.551Z,21.57
2024-02-04T11:34:56.517Z,21.56
2024-02-04T11:37:27.187Z,21.56
2024-02-04T11:39:59.716Z,21.57
2024-02-04T11:42:36.121Z,21.57
2024-02-04T11:45:10.420Z,21.57
2024-02-04T11:47:42.292Z,21.58
2024-02-04T11:50:13.349Z,21.58
2024-02-04T11:52:44.083Z,21.58
2024-02-04T11:55:18.081Z,21.57
2024-02-04T11:57:48.385Z,21.57
2024-02-04T12:00:19.718Z,21.57
2024-02-04T12:02:50.796Z,21.57
2024-02-04T12:05:22.121Z,21.58
2024-02-04T12:07:52.908Z,21.59
2024-02-04T12:10:23.708Z,21.60
2024-02-04T12:12:54.032Z,21.60
2024-02-04T12:15:24.369Z,21.62
2024-02-04T12:17:54.655Z,21.63
2024-02-04T12:20:25.072Z,21.63
2024-02-04T12:22:55.268Z,21.64
2024-02-04T12:25:28.853Z,21.65
2024-02-04T12:28:01.477Z,21.65
2024-02-04T12:30:33.282Z,21.66
2024-02-04T12:33:06.574Z,21.67
2024-02-04T12:35:36.912Z,21.68
2024-02-04T12:38:08.851Z,21.68
2024-02-04T12:40:39.243Z,21.68
2024-02-04T12:43:12.832Z,21.69
2024-02-04T12:45:43.768Z,21.70
2024-02-04T12:48:19.654Z,21.71
2024-02-04T12:50:49.975Z,21.71
2024-02-04T12:53:22.178Z,21.71
2024-02-04T12:56:01.758Z,21.71
2024-02-04T12:58:31.988Z,21.70
2024-02-04T13:01:06.684Z,21.70
2024-02-04T13:03:36.930Z,21.71
2024-02-04T13:06:07.412Z,21.72
2024-02-04T13:08:37.630Z,21.73
2024-02-04T13:11:08.100Z,21.74
2024-02-04T13:13:38.483Z,21.76
2024-02-04T13:16:09.090Z,21.78
2024-02-04T13:18:39.402Z,21.80
2024-02-04T13:21:09.609Z,21.82
2024-02-04T13:23:39.784Z,21.85
2024-02-04T13:26:10.042Z,21.88
2024-02-04T13:28:40.932Z,21.90
2024-02-04T13:31:11.308Z,21.93
2024-02-04T13:33:42.646Z,21.95
2024-02-04T13:36:13.565Z,21.98
2024-02-04T13:38:47.109Z,22.01
2024-02-04T13:41:18.290Z,22.03
2024-02-04T13:43:48.517Z,22.05
2024-02-04T13:46:18.778Z,22.08
2024-02-04T13:48:49.050Z,22.10
2024-02-04T13:51:31.978Z,22.13
2024-02-04T13:54:07.134Z,22.15
2024-02-04T13:56:37.298Z,22.18
2024-02-04T13:59:08.187Z,22.20
2024-02-04T14:01:38.767Z,22.21
2024-02-04T14:04:09.191Z,22.23
2024-02-04T14:06:40.180Z,22.24
2024-02-04T14:09:14.084Z,22.26
2024-02-04T14:11:45.391Z,22.26
2024-02-04T14:14:15.558Z,22.27
2024-02-04T14:16:45.713Z,22.28
2024-02-04T14:19:16.014Z,22.29
2024-02-04T14:21:47.034Z,22.30
2024-02-04T14:24:17.259Z,22.30
2024-02-04T14:26:47.504Z,22.30
2024-02-04T14:29:17.692Z,22.31
2024-02-04T14:31:48.365Z,22.32
2024-02-04T14:34:18.986Z,22.32
2024-02-04T14:36:49.292Z,22.32
2024-02-04T14:39:19.538Z,22.32
2024-02-04T14:41:50.818Z,22.32
2024-02-04T14:44:20.985Z,22.32
2024-02-04T14:46:51.243Z,22.32
2024-02-04T14:49:21.612Z,22.32
2024-02-04T14:51:51.975Z,22.32
2024-02-04T14:54:22.808Z,22.33
2024-02-04T14:56:54.146Z,22.34
2024-02-04T14:59:24.383Z,22.34
2024-02-04T15:01:54.769Z,22.35
2024-02-04T15:04:26.103Z,22.35
2024-02-04T15:06:56.429Z,22.36
2024-02-04T15:09:26.812Z,22.36
2024-02-04T15:11:57.558Z,22.36
2024-02-04T15:14:27.888Z,22.36
2024-02-04T15:16:59.797Z,22.35
2024-02-04T15:19:31.672Z,22.35
2024-02-04T15:22:02.624Z,22.34
2024-02-04T15:24:32.998Z,22.34
2024-02-04T15:27:06.387Z,22.34
2024-02-04T15:29:39.436Z,22.34
2024-02-04T15:32:10.436Z,22.33
2024-02-04T15:34:40.733Z,22.32
2024-02-04T15:37:11.400Z,22.31
2024-02-04T15:39:41.703Z,22.30
2024-02-04T15:42:12.214Z,22.29
2024-02-04T15:44:42.472Z,22.28
2024-02-04T15:47:15.308Z,22.27
2024-02-04T15:49:46.231Z,22.27
2024-02-04T15:52:16.900Z,22.27
2024-02-04T15:54:47.423Z,22.26
2024-02-04T15:57:25.867Z,22.26
2024-02-04T16:00:11.953Z,22.24
2024-02-04T16:02:44.273Z,22.24
2024-02-04T16:05:15.453Z,22.23
2024-02-04T16:07:46.818Z,22.23
2024-02-04T16:10:21.573Z,22.22
2024-02-04T16:12:57.522Z,22.22
2024-02-04T16:15:30.515Z,22.21
2024-02-04T16:18:02.004Z,22.20
2024-02-04T16:20:32.401Z,22.19
2024-02-04T16:23:02.524Z,22.18
2024-02-04T16:25:34.882Z,22.18
2024-02-04T16:28:05.703Z,22.17
2024-02-04T16:30:36.025Z,22.16
2024-02-04T16:33:06.559Z,22.14
2024-02-04T16:35:38.297Z,22.13
2024-02-04T16:38:08.444Z,22.11
2024-02-04T16:40:41.255Z,22.09
2024-02-04T16:43:11.434Z,22.07
2024-02-04T16:45:42.424Z,22.05
2024-02-04T16:48:12.729Z,22.04
2024-02-04T16:50:43.369Z,22.02
2024-02-04T16:53:15.885Z,22.01
2024-02-04T16:55:46.706Z,21.99
2024-02-04T16:58:16.943Z,21.99
2024-02-04T17:00:47.234Z,21.98
2024-02-04T17:03:17.684Z,21.96
2024-02-04T17:05:56.045Z,21.95
2024-02-04T17:08:27.669Z,21.93
2024-02-04T17:10:58.304Z,21.91
2024-02-04T17:13:28.648Z,21.90
2024-02-04T17:15:59.360Z,21.88
2024-02-04T17:18:51.023Z,21.88
2024-02-04T17:21:39.083Z,21.86
2024-02-04T17:24:20.228Z,21.85
2024-02-04T17:26:59.749Z,21.84
2024-02-04T17:29:30.139Z,21.84
2024-02-04T17:32:04.933Z,21.83
2024-02-04T17:34:35.345Z,21.83
2024-02-04T17:37:05.997Z,21.83
2024-02-04T17:39:37.936Z,21.82
2024-02-04T17:42:11.895Z,21.83
2024-02-04T17:44:42.482Z,21.82
2024-02-04T17:47:12.720Z,21.82
2024-02-04T17:49:42.948Z,21.82
2024-02-04T17:52:14.304Z,21.81
2024-02-04T17:54:44.495Z,21.80
2024-02-04T17:57:14.941Z,21.80
2024-02-04T17:59:45.519Z,21.80
2024-02-04T18:02:20.206Z,21.79
2024-02-04T18:04:55.762Z,21.79
2024-02-04T18:07:26.161Z,21.79
2024-02-04T18:09:56.430Z,21.80
2024-02-04T18:12:27.352Z,21.80
2024-02-04T18:14:57.501Z,21.81
2024-02-04T18:17:29.516Z,21.82
2024-02-04T18:20:01.353Z,21.83
2024-02-04T18:22:31.686Z,21.84
2024-02-04T18:25:04.391Z,21.84
2024-02-04T18:27:37.586Z,21.84
2024-02-04T18:30:10.297Z,21.84
2024-02-04T18:32:40.637Z,21.84
2024-02-04T18:35:11.058Z,21.83
2024-02-04T18:37:41.362Z,21.82
2024-02-04T18:40:12.124Z,21.82
2024-02-04T18:42:42.768Z,21.81
2024-02-04T18:45:12.971Z,21.80
2024-02-04T18:47:43.204Z,21.80
2024-02-04T18:50:15.804Z,21.80
2024-02-04T18:52:46.477Z,21.80
2024-02-04T18:55:16.857Z,21.80
2024-02-04T18:57:47.925Z,21.80
2024-02-04T19:00:18.324Z,21.80
2024-02-04T19:02:48.475Z,21.82
2024-02-04T19:05:18.959Z,21.82
2024-02-04T19:07:49.583Z,21.82
2024-02-04T19:10:20.237Z,21.82
2024-02-04T19:12:50.486Z,21.82
2024-02-04T19:15:20.637Z,21.81
2024-02-04T19:17:50.941Z,21.80
2024-02-04T19:20:21.214Z,21.80
2024-02-04T19:22:52.981Z,21.81
2024-02-04T19:25:23.435Z,21.82
2024-02-04T19:27:55.853Z,21.83
2024-02-04T19:30:27.520Z,21.84
2024-02-04T19:32:57.934Z,21.84
2024-02-04T19:35:29.975Z,21.85
2024-02-04T19:38:00.176Z,21.86
2024-02-04T19:40:30.405Z,21.87
2024-02-04T19:43:00.678Z,21.87
2024-02-04T19:45:30.867Z,21.88
2024-02-04T19:48:01.051Z,21.88
2024-02-04T19:50:31.285Z,21.90
2024-02-04T19:53:01.824Z,21.90
2024-02-04T19:55:31.965Z,21.90
2024-02-04T19:58:03.757Z,21.91
2024-02-04T20:00:34.338Z,21.91
2024-02-04T20:03:04.601Z,21.91
2024-02-04T20:05:35.064Z,21.90
2024-02-04T20:08:05.442Z,21.90
2024-02-04T20:10:38.006Z,21.89
2024-02-04T20:13:08.176Z,21.89
2024-02-04T20:15:38.400Z,21.89
2024-02-04T20:18:08.807Z,21.88
2024-02-04T20:20:41.480Z,21.88
2024-02-04T20:23:11.646Z,21.87
2024-02-04T20:25:44.005Z,21.85
2024-02-04T20:28:14.238Z,21.84
2024-02-04T20:30:44.627Z,21.84
2024-02-04T20:33:14.865Z,21.83
2024-02-04T20:35:45.140Z,21.82
2024-02-04T20:38:17.552Z,21.81
2024-02-04T20:43:34.631Z,22.05
2024-02-04T20:46:07.821Z,22.06
2024-02-04T20:48:38.524Z,22.08
2024-02-04T20:51:10.341Z,22.07
2024-02-04T20:53:40.661Z,22.05
2024-02-04T20:56:10.900Z,22.04
2024-02-04T20:58:41.515Z,22.01
2024-02-04T21:01:12.172Z,21.99
2024-02-04T21:03:42.396Z,21.96
2024-02-04T21:06:21.931Z,21.93
2024-02-04T21:08:52.160Z,21.89
2024-02-04T21:11:27.499Z,21.85
2024-02-04T21:13:59.460Z,21.82
2024-02-04T21:16:29.958Z,21.78
2024-02-04T21:19:01.984Z,21.75
2024-02-04T21:21:32.276Z,21.71
2024-02-04T21:24:02.536Z,21.68
2024-02-04T21:26:32.726Z,21.66
2024-02-04T21:29:03.075Z,21.63
2024-02-04T21:31:33.898Z,21.60
2024-02-04T21:34:04.182Z,21.57
2024-02-04T21:36:34.520Z,21.55
2024-02-04T21:39:04.784Z,21.53
2024-02-04T21:41:36.058Z,21.51
2024-02-04T21:44:07.173Z,21.49
2024-02-04T21:46:37.369Z,21.48
2024-02-04T21:49:07.683Z,21.46
2024-02-04T21:51:38.617Z,21.45
2024-02-04T21:54:08.994Z,21.45
2024-02-04T21:56:39.248Z,21.44
2024-02-04T21:59:09.868Z,21.43
2024-02-04T22:01:40.527Z,21.43
2024-02-04T22:04:11.205Z,21.43
2024-02-04T22:06:41.639Z,21.43
2024-02-04T22:09:12.658Z,21.44
2024-02-04T22:11:43.818Z,21.45
2024-02-04T22:14:14.217Z,21.45
2024-02-04T22:16:44.966Z,21.45
2024-02-04T22:19:15.683Z,21.45
2024-02-04T22:21:46.105Z,21.45
2024-02-04T22:24:16.320Z,21.44
2024-02-04T22:26:46.585Z,21.43
2024-02-04T22:29:16.922Z,21.43
2024-02-04T22:31:47.290Z,21.42
2024-02-04T22:34:20.024Z,21.40
2024-02-04T22:36:50.320Z,21.39
2024-02-04T22:39:20.616Z,21.38
2024-02-04T22:41:50.759Z,21.37
2024-02-04T22:44:20.904Z,21.35
2024-02-04T22:46:51.141Z,21.34
2024-02-04T22:49:22.040Z,21.32
2024-02-04T22:51:53.504Z,21.30
2024-02-04T22:54:23.648Z,21.28
2024-02-04T22:56:53.767Z,21.26
2024-02-04T22:59:23.949Z,21.23
2024-02-04T23:01:54.465Z,21.20
2024-02-04T23:04:24.859Z,21.18
2024-02-04T23:06:55.348Z,21.16
2024-02-04T23:09:25.548Z,21.13
2024-02-04T23:11:55.765Z,21.12
2024-02-04T23:14:26.016Z,21.09
2024-02-04T23:16:57.981Z,21.06
2024-02-04T23:19:28.268Z,21.04
2024-02-04T23:21:59.523Z,21.01
2024-02-04T23:24:29.779Z,20.99
2024-02-04T23:26:59.927Z,20.98
2024-02-04T23:29:30.062Z,20.96
2024-02-04T23:32:01.249Z,20.95
2024-02-04T23:34:31.581Z,20.93
2024-02-04T23:37:01.850Z,20.91
2024-02-04T23:39:32.020Z,20.89
2024-02-04T23:42:02.154Z,20.86
2024-02-04T23:44:32.292Z,20.84
2024-02-04T23:47:02.572Z,20.82
2024-02-04T23:49:32.829Z,20.80
2024-02-04T23:52:03.258Z,20.79
2024-02-04T23:54:33.480Z,20.77
2024-02-04T23:57:03.684Z,20.76
2024-02-04T23:59:33.860Z,20.74
